< Typhoon 196729 1967 Season Typhoon 196731 >
Typhoon 196730 (AMY)
General InformationTrack Information on Google Maps || Disaster Info.ResourceGoogle EarthGE AnimationAtom FeedGeoJSON
Detalied Best Track (Time Zone = UTC)
Year Month Day Hour Lat. Long. Pressure (hPa) Wind (kt) Class Image Chart
1967 9 24 18 5.9 165.0 1008 0 2 -- Chart
1967 9 25 00 7.0 164.2 1008 0 2 -- Chart
1967 9 25 06 8.0 163.5 1007 0 2 -- Chart
1967 9 25 12 9.0 162.8 1008 0 2 -- Chart
1967 9 25 18 10.1 162.2 1006 0 2 -- Chart
1967 9 26 00 11.0 161.8 1006 0 2 -- Chart
1967 9 26 06 12.0 161.3 1006 0 2 -- Chart
1967 9 26 12 12.9 160.9 1006 0 2 -- Chart
1967 9 26 18 13.9 160.5 1006 0 2 -- Chart
1967 9 27 00 14.8 160.2 1006 0 2 -- Chart
1967 9 27 06 15.7 159.8 1004 0 2 -- Chart
1967 9 27 12 16.9 159.6 1004 0 2 -- Chart
1967 9 27 18 17.8 159.3 1002 0 2 -- Chart
1967 9 28 00 18.8 158.9 1000 0 2 -- Chart
1967 9 28 06 19.5 158.3 996 0 9 -- Chart
1967 9 28 12 20.0 158.0 996 0 9 -- Chart
1967 9 28 18 20.6 157.5 996 0 9 -- Chart
1967 9 29 00 21.1 157.5 994 0 9 -- Chart
1967 9 29 06 21.4 157.7 994 0 9 -- Chart
1967 9 29 12 21.4 158.2 985 0 9 -- Chart
1967 9 29 18 21.3 158.7 985 0 9 -- Chart
1967 9 30 00 21.0 159.0 980 0 9 -- Chart
1967 9 30 06 20.7 159.3 980 0 9 -- Chart
1967 9 30 12 20.2 159.5 980 0 9 -- Chart
1967 9 30 18 19.9 159.7 980 0 9 -- Chart
1967 10 1 00 19.5 159.5 980 0 9 -- Chart
1967 10 1 06 19.6 159.3 980 0 9 -- Chart
1967 10 1 12 19.8 159.1 980 0 9 -- Chart
1967 10 1 18 20.1 158.5 986 0 9 -- Chart
1967 10 2 00 20.1 157.4 990 0 9 -- Chart
1967 10 2 06 20.1 156.8 990 0 9 -- Chart
1967 10 2 12 20.1 156.0 990 0 9 -- Chart
1967 10 2 18 20.4 154.6 988 0 9 -- Chart
1967 10 3 00 21.2 153.1 990 0 9 -- Chart
1967 10 3 06 21.8 152.1 986 0 9 -- Chart
1967 10 3 12 22.5 151.0 982 0 9 -- Chart
1967 10 3 18 23.1 149.8 977 0 9 -- Chart
1967 10 4 00 23.9 148.6 970 0 9 -- Chart
1967 10 4 06 25.1 147.4 966 0 9 -- Chart
1967 10 4 12 26.1 146.9 966 0 9 -- Chart
1967 10 4 18 27.4 146.5 966 0 9 -- Chart
1967 10 5 00 28.8 146.4 964 0 9 -- Chart
1967 10 5 06 30.2 146.9 962 0 9 -- Chart
1967 10 5 12 31.9 148.2 962 0 9 -- Chart
1967 10 5 18 34.1 149.9 965 0 9 -- Chart
1967 10 6 00 36.3 151.5 980 0 9 -- Chart
1967 10 6 06 39.0 156.0 992 0 6 -- Chart
1967 10 6 12 41.0 162.2 992 0 6 -- Chart
1967 10 6 18 42.4 169.0 992 0 6 -- Chart
1967 10 7 00 45.9 178.0 988 0 6 -- Chart
1967 10 7 06 49.1 181.7 980 0 6 -- Chart
Japan Meteorological Agency Best Track Data | Correction Date : 2013-03-19
< Typhoon 196729 1967 Season Typhoon 196731 >

Help